Spring Creek, South Dakota
Current Conditions -  °F | °C
As of 10:52 AM on Saturday 25 Oct 2014 (Local Time) from KVTN Reporting Station
Clear Clear  
Wind Chill: 55°   Ceiling: Unl
Heat Index: 55°   Visibility: 10mi
Dew Point: 34°   Wind: 6mph
Humidity: 45%   Direction: 140°SE
Pressure: 30.19"   Gusts: NA
Location:  43.1381°N, 100.965°W
Report Text: KVTN 251552Z AUTO 14005KT 10SM CLR 13/01 A3019 RMK AO2 SLP227 T01280011
Loading
Personal Weather Stations






























Interactive Weather Map New forecast layout! Learn more

10-Day Weather Forecast

Advertisements
Track Severe Weather on mobile